Latest Weather Observations for Keith West

IDS60801

Issued at 6:31 pm CST Friday 28 August 2015 (issued every 30 minutes, with the page automatically refreshed every 10 minutes)

About weather observations | Map of weather stations | Latest weather observations for SA | Other Formats
Station Details ID: 025557 Name: MUNKORA Lat: -36.11 Lon: 140.33 Height: 27.0 m
Data from the previous 72 hours. | See also: Recent months at Keith West
Date/Time
CST
Temp
°C
App
Temp
°C
Dew
Point
Rel
Hum
%
Delta-T
°C
Wind Press
QNH
hPa
Press
MSL
hPa
Rain
since 9 am
mm
Dir
 
Spd
km/h
Gust
km/h
Spd
kts
Gust
kts
28/06:30pm 9.7 7.4 7.6 87 1.0 SSE 9 13 5 7 1027.3 1027.4 0.0
28/06:00pm 9.8 6.7 7.1 83 1.3 SSE 13 19 7 10 1027.0 1027.1 0.0
28/05:30pm 11.1 7.8 6.6 74 2.1 SSE 13 19 7 10 1026.9 1027.0 0.0
28/05:00pm 12.7 10.1 6.1 64 3.1 SSE 9 13 5 7 1026.7 1026.8 0.0
28/04:30pm 13.3 11.0 5.7 60 3.6 ESE 7 11 4 6 1026.6 1026.7 0.0
28/04:00pm 13.3 10.2 5.5 59 3.7 ESE 11 15 6 8 1026.7 1026.8 0.0
28/03:30pm 13.2 9.6 5.1 58 3.7 ESE 13 19 7 10 1026.7 1026.8 0.0
28/03:00pm 13.7 9.4 5.3 57 3.9 ESE 17 24 9 13 1026.8 1026.9 0.0
28/02:30pm 13.9 10.3 4.8 54 4.2 SE 13 19 7 10 1027.0 1027.1 0.0
28/02:00pm 13.9 10.5 5.8 58 3.8 ESE 13 20 7 11 1027.3 1027.4 0.0
28/01:30pm 13.4 9.3 4.3 54 4.1 E 15 20 8 11 1027.5 1027.6 0.0
28/01:00pm 13.1 9.5 5.0 58 3.8 ESE 13 19 7 10 1027.8 1027.9 0.0
28/12:30pm 13.0 9.3 4.4 56 3.9 E 13 17 7 9 1028.4 1028.5 0.0
28/12:00pm 11.5 7.7 3.8 59 3.4 ESE 13 20 7 11 1028.8 1028.9 0.0
28/11:30am 11.6 8.3 4.6 62 3.1 ESE 11 17 6 9 1029.3 1029.4 0.0
28/11:00am 11.5 7.8 4.5 62 3.2 ESE 13 19 7 10 1029.5 1029.6 0.0
28/10:30am 11.4 8.0 5.9 69 2.5 ESE 13 19 7 10 1029.5 1029.6 0.0
28/10:00am 10.7 7.6 7.2 79 1.7 ESE 13 17 7 9 1029.6 1029.7 0.0
28/09:30am 9.8 8.2 7.9 88 0.9 SE 6 11 3 6 1029.6 1029.7 0.0
28/09:00am 8.8 6.5 7.4 91 0.7 SE 9 13 5 7 1029.6 1029.7 1.2
28/08:30am 7.6 5.7 6.9 95 0.3 SE 6 9 3 5 1029.5 1029.6 1.2
28/08:00am 6.6 5.7 6.0 96 0.3 CALM 0 0 0 0 1029.4 1029.5 1.2
28/07:30am 2.9 1.3 2.3 96 0.2 CALM 0 2 0 1 1029.2 1029.3 1.2
28/07:00am 0.0 -2.4 -0.6 96 0.2 S 2 6 1 3 1028.9 1029.0 1.2
28/06:30am -0.1 -2.9 -0.7 96 0.2 SSW 4 4 2 2 1028.6 1028.7 1.0
28/06:00am 0.2 -2.2 -0.4 96 0.2 WSW 2 2 1 1 1028.2 1028.3 1.0
28/05:30am 3.3 0.4 2.6 95 0.3 SSE 7 9 4 5 1028.1 1028.2 1.0
28/05:00am 4.2 1.5 3.5 95 0.3 SE 7 9 4 5 1027.8 1027.9 1.0
28/04:30am 3.5 0.8 2.6 94 0.4 SE 6 6 3 3 1027.6 1027.7 1.0
28/04:00am 4.5 2.0 3.6 94 0.4 SE 6 7 3 4 1027.3 1027.4 1.0
28/03:30am 4.8 2.1 3.9 94 0.4 SE 7 9 4 5 1027.2 1027.3 1.0
28/03:00am 5.2 1.9 4.3 94 0.4 SE 11 13 6 7 1027.2 1027.3 1.0
28/02:30am 5.4 1.7 4.5 94 0.4 SE 13 15 7 8 1027.4 1027.5 1.0
28/02:00am 5.8 2.2 4.8 93 0.4 SE 13 15 7 8 1027.5 1027.6 1.0
28/01:30am 6.2 3.0 5.3 94 0.4 SSE 11 15 6 8 1027.5 1027.6 1.0
28/01:00am 5.5 2.6 4.5 93 0.4 SE 9 11 5 6 1027.6 1027.7 1.0
28/12:30am 6.2 3.4 5.2 93 0.4 SSE 9 11 5 6 1027.3 1027.4 1.0
28/12:00am 5.9 3.0 4.9 93 0.4 SSE 9 11 5 6 1027.3 1027.4 1.0
 
Date/Time
CST
Temp
°C
App
Temp
°C
Dew
Point
Rel
Hum
%
Delta-T
°C
Wind Press
QNH
hPa
Press
MSL
hPa
Rain
since 9 am
mm
Dir
 
Spd
km/h
Gust
km/h
Spd
kts
Gust
kts
27/11:30pm 6.6 4.2 5.4 92 0.5 SSE 7 9 4 5 1027.3 1027.4 1.0
27/11:00pm 7.5 4.2 6.3 92 0.5 SSE 13 17 7 9 1027.3 1027.4 1.0
27/10:30pm 7.6 4.3 6.2 91 0.6 SE 13 17 7 9 1027.2 1027.3 1.0
27/10:00pm 8.0 4.7 6.6 91 0.6 SSE 13 17 7 9 1027.2 1027.3 1.0
27/09:30pm 8.0 5.2 6.8 92 0.6 SSE 11 15 6 8 1026.9 1027.0 1.0
27/09:00pm 8.2 5.4 6.8 91 0.6 SSE 11 15 6 8 1026.7 1026.8 1.0
27/08:30pm 8.6 5.8 7.1 90 0.7 SSE 11 17 6 9 1026.6 1026.7 1.0
27/08:00pm 9.4 6.4 7.7 89 0.8 SSE 13 17 7 9 1026.3 1026.4 1.0
27/07:30pm 9.7 6.7 7.8 88 0.9 SSE 13 19 7 10 1026.0 1026.1 1.0
27/07:00pm 10.5 7.2 8.1 85 1.2 SSE 15 20 8 11 1025.6 1025.7 1.0
27/06:30pm 10.6 7.9 7.5 81 1.5 SSE 11 17 6 9 1025.2 1025.3 1.0
27/06:00pm 10.9 7.5 7.6 80 1.6 SSE 15 22 8 12 1024.8 1024.9 1.0
27/05:30pm 11.7 8.9 8.7 82 1.5 SSE 13 19 7 10 1024.4 1024.5 1.0
27/05:00pm 12.0 8.4 8.5 79 1.7 SSE 17 24 9 13 1024.0 1024.1 1.0
27/04:30pm 13.0 8.2 8.9 76 2.1 SSE 24 32 13 17 1023.7 1023.8 1.0
27/04:00pm 13.2 8.4 8.9 75 2.2 SSE 24 37 13 20 1023.5 1023.6 1.0
27/03:30pm 12.9 8.2 9.4 79 1.8 S 24 33 13 18 1023.4 1023.5 1.0
27/03:00pm 12.7 8.4 9.5 81 1.6 SSE 22 33 12 18 1023.5 1023.6 1.0
27/02:30pm 11.9 8.2 9.5 85 1.2 SSE 19 26 10 14 1023.6 1023.7 0.6
27/02:00pm 12.8 8.5 7.7 71 2.5 S 20 28 11 15 1023.6 1023.7 0.0
27/01:30pm 14.6 8.5 8.1 65 3.2 SSE 30 41 16 22 1023.5 1023.6 0.0
27/01:00pm 13.9 7.8 6.5 61 3.6 S 28 41 15 22 1023.8 1023.9 0.0
27/12:30pm 14.2 8.4 6.1 58 3.9 S 26 35 14 19 1023.8 1023.9 0.0
27/12:00pm 13.9 8.9 6.3 60 3.6 S 22 32 12 17 1024.0 1024.1 0.0
27/11:30am 14.9 10.3 6.5 57 4.1 S 20 28 11 15 1024.2 1024.3 0.0
27/11:00am 14.3 10.0 6.9 61 3.6 SSE 19 26 10 14 1024.4 1024.5 0.0
27/10:30am 12.6 8.9 6.4 66 2.9 SSE 15 22 8 12 1024.5 1024.6 0.0
27/10:00am 10.8 10.5 10.0 95 0.4 SE 2 4 1 2 1024.7 1024.8 0.0
27/09:30am 8.8 8.0 8.0 95 0.4 SW 2 6 1 3 1024.8 1024.9 0.0
27/09:00am 6.8 5.1 6.1 95 0.3 SW 4 6 2 3 1024.9 1025.0 0.2
27/08:30am 5.6 4.5 5.0 96 0.3 CALM 0 0 0 0 1024.7 1024.8 0.2
27/08:00am 4.0 1.8 3.4 96 0.2 W 4 4 2 2 1024.7 1024.8 0.2
27/07:30am 3.1 1.1 2.5 96 0.2 W 2 4 1 2 1024.3 1024.4 0.2
27/07:00am 2.7 0.3 2.1 96 0.2 W 4 6 2 3 1023.8 1023.9 0.2
27/06:30am 3.2 1.6 2.6 96 0.2 CALM 0 0 0 0 1023.5 1023.6 0.2
27/06:00am 3.2 1.6 2.6 96 0.2 CALM 0 0 0 0 1023.2 1023.3 0.2
27/05:30am 2.7 1.0 2.1 96 0.2 CALM 0 0 0 0 1023.0 1023.1 0.2
27/05:00am 2.9 0.9 2.2 95 0.3 WSW 2 2 1 1 1022.6 1022.7 0.0
27/04:30am 3.5 1.2 2.8 95 0.3 WSW 4 4 2 2 1022.5 1022.6 0.0
27/04:00am 4.0 1.8 3.3 95 0.3 WSW 4 4 2 2 1022.5 1022.6 0.0
27/03:30am 4.2 1.7 3.5 95 0.3 WSW 6 7 3 4 1022.5 1022.6 0.0
27/03:00am 2.9 -0.1 2.2 95 0.3 WSW 7 7 4 4 1022.5 1022.6 0.0
27/02:30am 3.9 1.3 3.2 95 0.3 W 6 6 3 3 1022.7 1022.8 0.0
27/02:00am 4.0 2.6 3.3 95 0.3 CALM 0 2 0 1 1022.9 1023.0 0.0
27/01:30am 3.8 1.2 3.1 95 0.3 WSW 6 6 3 3 1023.1 1023.2 0.0
27/01:00am 3.8 2.3 2.9 94 0.4 CALM 0 4 0 2 1023.2 1023.3 0.0
27/12:30am 3.9 1.6 3.0 94 0.4 SW 4 4 2 2 1023.2 1023.3 0.0
27/12:00am 4.3 2.5 3.3 93 0.4 SSW 2 4 1 2 1023.2 1023.3 0.0
 
Date/Time
CST
Temp
°C
App
Temp
°C
Dew
Point
Rel
Hum
%
Delta-T
°C
Wind Press
QNH
hPa
Press
MSL
hPa
Rain
since 9 am
mm
Dir
 
Spd
km/h
Gust
km/h
Spd
kts
Gust
kts
26/11:30pm 5.2 3.6 4.3 94 0.4 SW 2 2 1 1 1023.4 1023.5 0.0
26/11:00pm 4.9 2.8 3.9 93 0.4 WSW 4 6 2 3 1023.7 1023.8 0.0
26/10:30pm 4.9 1.8 3.7 92 0.5 WSW 9 9 5 5 1023.9 1024.0 0.0
26/10:00pm 6.2 4.2 4.5 89 0.7 SSW 4 6 2 3 1023.9 1024.0 0.0
26/09:30pm 8.7 6.9 7.3 91 0.7 S 6 6 3 3 1024.0 1024.1 0.0
26/09:00pm 8.0 6.1 6.6 91 0.6 S 6 7 3 4 1023.8 1023.9 0.0
26/08:30pm 8.1 5.9 6.2 88 0.9 SW 7 7 4 4 1023.8 1023.9 0.0
26/08:00pm 9.4 7.6 7.3 87 1.0 SE 6 7 3 4 1023.4 1023.5 0.0
26/07:30pm 10.1 8.4 7.7 85 1.1 ESE 6 9 3 5 1023.4 1023.5 0.0
26/07:00pm 10.7 7.7 7.9 83 1.4 SSE 13 17 7 9 1023.0 1023.1 0.0
26/06:30pm 11.0 8.9 8.2 83 1.4 SSE 9 13 5 7 1023.1 1023.2 0.0
26/06:00pm 11.3 8.8 8.3 82 1.5 SE 11 15 6 8 1022.9 1023.0 0.0
26/05:30pm 11.7 9.2 8.4 80 1.6 SSE 11 15 6 8 1022.7 1022.8 0.0
26/05:00pm 12.2 10.1 8.3 77 1.9 S 9 13 5 7 1022.5 1022.6 0.0
26/04:30pm 12.9 10.3 7.8 71 2.5 S 11 17 6 9 1022.3 1022.4 0.0
26/04:00pm 14.4 12.6 7.0 61 3.6 E 6 7 3 4 1022.1 1022.2 0.0
26/03:30pm 14.6 12.6 6.2 57 4.0 NE 6 7 3 4 1022.1 1022.2 0.0
26/03:00pm 14.7 13.1 6.3 57 4.0 ENE 4 7 2 4 1022.3 1022.4 0.0
26/02:30pm 15.0 12.6 7.1 59 3.9 SE 9 15 5 8 1022.3 1022.4 0.0
26/02:00pm 15.1 13.5 6.4 56 4.2 SE 4 7 2 4 1022.5 1022.6 0.0
26/01:30pm 14.9 13.1 7.0 59 3.9 ESE 6 9 3 5 1022.8 1022.9 0.0
26/01:00pm 14.8 13.0 8.1 64 3.4 SSE 7 13 4 7 1023.0 1023.1 0.0
26/12:30pm 14.2 12.2 7.0 62 3.5 SSE 7 13 4 7 1023.5 1023.6 0.0
26/12:00pm 14.2 12.6 7.9 66 3.1 SSE 6 11 3 6 1024.0 1024.1 0.0
26/11:30am 13.9 12.0 7.4 65 3.2 SE 7 11 4 6 1024.4 1024.5 0.0
26/11:00am 13.4 11.9 7.0 65 3.1 E 4 9 2 5 1024.6 1024.7 0.0
26/10:30am 13.0 11.5 7.0 67 2.9 NE 4 7 2 4 1024.9 1025.0 0.0
26/10:00am 12.9 11.3 8.0 72 2.4 NE 6 13 3 7 1025.1 1025.2 0.0
26/09:30am 11.9 10.0 7.6 75 2.1 NE 7 11 4 6 1025.2 1025.3 0.0
26/09:00am 10.3 8.3 7.0 80 1.6 ENE 7 9 4 5 1025.4 1025.5 0.0
26/08:30am 8.5 6.4 5.8 83 1.2 E 6 9 3 5 1025.3 1025.4 0.0
26/08:00am 6.8 5.0 5.3 90 0.7 ESE 4 6 2 3 1025.4 1025.5 0.0
26/07:30am 5.7 4.1 4.5 92 0.5 ESE 2 4 1 2 1025.4 1025.5 0.0
26/07:00am 5.3 3.2 4.1 92 0.5 ESE 4 4 2 2 1025.3 1025.4 0.0
26/06:30am 5.2 3.1 4.0 92 0.5 ESE 4 6 2 3 1025.2 1025.3 0.0
26/06:00am 5.3 2.9 4.1 92 0.5 ESE 6 6 3 3 1025.1 1025.2 0.0
26/05:30am 5.2 3.1 3.9 91 0.5 ESE 4 4 2 2 1025.1 1025.2 0.0
26/05:00am 5.2 3.1 3.9 91 0.5 ESE 4 6 2 3 1025.0 1025.1 0.0
26/04:30am 5.2 3.5 3.9 91 0.5 ESE 2 4 1 2 1025.0 1025.1 0.0
26/04:00am 5.2 3.1 3.7 90 0.6 ESE 4 4 2 2 1025.1 1025.2 0.0
26/03:30am 5.2 2.7 3.7 90 0.6 SE 6 6 3 3 1025.0 1025.1 0.0
26/03:00am 5.3 3.1 3.6 89 0.7 SE 4 6 2 3 1025.1 1025.2 0.0
26/02:30am 5.3 2.6 3.6 89 0.7 SE 7 7 4 4 1025.3 1025.4 0.0
26/02:00am 5.4 2.8 3.4 87 0.8 ESE 6 7 3 4 1025.6 1025.7 0.0
26/01:30am 5.4 2.8 3.4 87 0.8 ESE 6 7 3 4 1025.7 1025.8 0.0
26/01:00am 5.4 2.8 3.1 85 1.0 ESE 6 7 3 4 1025.9 1026.0 0.0
26/12:30am 5.0 2.4 3.2 88 0.7 ESE 6 7 3 4 1025.9 1026.0 0.0
26/12:00am 4.5 1.6 2.5 87 0.8 SE 7 9 4 5 1026.0 1026.1 0.0
 
Date/Time
CST
Temp
°C
App
Temp
°C
Dew
Point
Rel
Hum
%
Delta-T
°C
Wind Press
QNH
hPa
Press
MSL
hPa
Rain
since 9 am
mm
Dir
 
Spd
km/h
Gust
km/h
Spd
kts
Gust
kts
25/11:30pm 4.8 1.9 2.7 86 0.8 SE 7 7 4 4 1026.0 1026.1 0.0
25/11:00pm 5.0 2.2 2.2 82 1.1 SSE 6 6 3 3 1026.2 1026.3 0.0
25/10:30pm 5.4 2.5 2.4 81 1.2 ESE 7 9 4 5 1026.3 1026.4 0.0
25/10:00pm 6.7 3.5 3.1 78 1.5 E 9 13 5 7 1026.5 1026.6 0.0
25/09:30pm 6.2 3.0 3.0 80 1.3 E 9 13 5 7 1026.5 1026.6 0.0
25/09:00pm 7.1 3.6 3.5 78 1.5 ESE 11 15 6 8 1026.5 1026.6 0.0
25/08:30pm 7.8 4.0 4.0 77 1.6 ESE 13 17 7 9 1026.4 1026.5 0.0
25/08:00pm 6.8 3.7 3.4 79 1.4 ESE 9 13 5 7 1026.4 1026.5 0.0
25/07:30pm 7.8 3.9 3.5 74 1.8 SE 13 15 7 8 1026.2 1026.3 0.0
25/07:00pm 7.7 4.1 3.0 72 2.0 SE 11 13 6 7 1026.1 1026.2 0.0

Other Formats:

Comma delimited format used in spreadsheet applications
http://www.bom.gov.au/fwo/IDS60801/IDS60801.95815.axf

JavaScript Object Notation format (JSON) in row-major order
http://www.bom.gov.au/fwo/IDS60801/IDS60801.95815.json